createdAt,value
2022-10-05T00:01:46.701Z,101524.97
2022-10-05T00:06:57.557Z,101537.19
2022-10-05T00:12:13.123Z,101540.59
2022-10-05T00:17:17.891Z,101521.00
2022-10-05T00:22:22.074Z,101520.13
2022-10-05T00:27:27.381Z,101538.63
2022-10-05T00:32:29.414Z,101537.63
2022-10-05T00:37:31.076Z,101538.38
2022-10-05T00:42:44.920Z,101529.59
2022-10-05T00:47:57.717Z,101531.22
2022-10-05T00:53:10.477Z,101521.38
2022-10-05T00:58:26.476Z,101510.72
2022-10-05T01:03:37.615Z,101506.38
2022-10-05T01:08:46.605Z,101503.78
2022-10-05T01:13:59.720Z,101507.34
2022-10-05T01:19:11.849Z,101492.25
2022-10-05T01:24:40.229Z,101480.03
2022-10-05T01:29:49.725Z,101474.94
2022-10-05T01:34:59.869Z,101482.97
2022-10-05T01:40:07.887Z,101484.72
2022-10-05T01:45:18.789Z,101482.81
2022-10-05T01:50:32.782Z,101474.78
2022-10-05T01:55:42.336Z,101479.91
2022-10-05T02:00:55.867Z,101484.19
2022-10-05T02:06:00.683Z,101498.06
2022-10-05T02:11:07.432Z,101497.09
2022-10-05T02:16:16.424Z,101499.66
2022-10-05T02:21:20.249Z,101510.13
2022-10-05T02:26:24.301Z,101502.00
2022-10-05T02:31:35.314Z,101500.03
2022-10-05T02:36:38.136Z,101501.72
2022-10-05T02:41:49.098Z,101499.78
2022-10-05T02:46:59.934Z,101497.19
2022-10-05T02:52:08.858Z,101499.78
2022-10-05T02:57:16.509Z,101491.75
2022-10-05T03:02:25.049Z,101486.47
2022-10-05T03:07:33.895Z,101486.44
2022-10-05T03:12:44.539Z,101481.22
2022-10-05T03:17:52.294Z,101483.84
2022-10-05T03:22:58.190Z,101480.31
2022-10-05T03:28:07.527Z,101469.91
2022-10-05T03:33:21.245Z,101466.53
2022-10-05T03:38:34.364Z,101463.91
2022-10-05T03:44:02.119Z,101458.78
2022-10-05T03:49:14.464Z,101439.56
2022-10-05T03:54:22.980Z,101426.59
2022-10-05T03:59:32.644Z,101432.13
2022-10-05T04:04:51.298Z,101426.09
2022-10-05T04:09:56.299Z,101436.94
2022-10-05T04:15:03.178Z,101436.34
2022-10-05T04:20:18.209Z,101432.94
2022-10-05T04:25:25.203Z,101429.47
2022-10-05T04:30:26.962Z,101440.06
2022-10-05T04:35:41.472Z,101434.78
2022-10-05T04:40:58.707Z,101434.81
2022-10-05T04:46:13.856Z,101428.78
2022-10-05T04:51:35.792Z,101427.03
2022-10-05T04:56:42.250Z,101424.44
2022-10-05T05:02:03.701Z,101426.16
2022-10-05T05:07:19.255Z,101417.38
2022-10-05T05:12:35.171Z,101412.03
2022-10-05T05:17:56.856Z,101432.41
2022-10-05T05:23:09.033Z,101441.31
2022-10-05T05:28:19.433Z,101432.44
2022-10-05T05:33:23.182Z,101426.34
2022-10-05T05:38:32.891Z,101416.72
2022-10-05T05:43:58.827Z,101400.94
2022-10-05T05:49:07.484Z,101400.16
2022-10-05T05:54:29.972Z,101409.94
2022-10-05T05:59:43.182Z,101410.88
2022-10-05T06:04:49.780Z,101409.16
2022-10-05T06:09:58.388Z,101414.53
2022-10-05T06:15:05.358Z,101425.19
2022-10-05T06:20:16.574Z,101412.84
2022-10-05T06:25:31.047Z,101419.06
2022-10-05T06:30:46.133Z,101404.97
2022-10-05T06:36:04.504Z,101419.13
2022-10-05T06:41:16.191Z,101420.94
2022-10-05T06:46:23.562Z,101430.66
2022-10-05T06:51:35.106Z,101435.91
2022-10-05T06:56:45.512Z,101429.72
2022-10-05T07:01:59.291Z,101424.38
2022-10-05T07:07:07.452Z,101432.28
2022-10-05T07:12:33.399Z,101434.84
2022-10-05T07:17:49.463Z,101440.91
2022-10-05T07:23:10.026Z,101447.09
2022-10-05T07:28:19.456Z,101425.75
2022-10-05T07:33:27.165Z,101431.94
2022-10-05T07:38:35.501Z,101430.03
2022-10-05T07:44:02.445Z,101436.88
2022-10-05T07:49:13.302Z,101443.63
2022-10-05T07:54:21.660Z,101438.66
2022-10-05T07:59:34.692Z,101447.34
2022-10-05T08:04:45.064Z,101458.56
2022-10-05T08:09:54.326Z,101446.22
2022-10-05T08:15:00.727Z,101424.66
2022-10-05T08:20:16.058Z,101421.88
2022-10-05T08:25:24.806Z,101417.47
2022-10-05T08:30:30.738Z,101405.38
2022-10-05T08:35:38.186Z,101391.47
2022-10-05T08:41:11.744Z,101400.75
2022-10-05T08:46:29.511Z,101389.94
2022-10-05T08:51:57.162Z,101388.13
2022-10-05T08:57:32.073Z,101376.00
2022-10-05T09:02:57.593Z,101375.47
2022-10-05T09:08:30.418Z,101391.25
2022-10-05T09:13:49.735Z,101380.28
2022-10-05T09:19:12.144Z,101382.78
2022-10-05T09:24:27.421Z,101370.56
2022-10-05T09:30:06.065Z,101368.13
2022-10-05T09:35:27.454Z,101360.78
2022-10-05T09:41:00.548Z,101353.28
2022-10-05T09:46:28.338Z,101339.38
2022-10-05T09:52:02.381Z,101349.09
2022-10-05T09:57:42.413Z,101341.47
2022-10-05T10:03:07.246Z,101337.88
2022-10-05T10:08:25.442Z,101336.38
2022-10-05T10:14:08.854Z,101332.22
2022-10-05T10:19:30.744Z,101332.97
2022-10-05T10:24:50.971Z,101315.63
2022-10-05T10:30:14.185Z,101305.78
2022-10-05T10:41:04.259Z,101329.84
2022-10-05T10:46:19.029Z,101333.56
2022-10-05T10:51:46.806Z,101335.00
2022-10-05T10:56:56.102Z,101331.06
2022-10-05T11:02:25.162Z,101325.59
2022-10-05T11:07:49.965Z,101312.34
2022-10-05T11:13:24.379Z,101300.78
2022-10-05T11:18:40.698Z,101296.72
2022-10-05T11:24:08.338Z,101286.63
2022-10-05T11:29:47.663Z,101280.91
2022-10-05T11:35:20.766Z,101274.50
2022-10-05T11:40:47.498Z,101272.00
2022-10-05T11:46:04.782Z,101270.59
2022-10-05T11:51:30.385Z,101260.34
2022-10-05T11:56:37.081Z,101267.34
2022-10-05T12:01:49.429Z,101272.13
2022-10-05T12:07:06.920Z,101257.53
2022-10-05T12:12:17.461Z,101254.19
2022-10-05T12:17:29.368Z,101251.63
2022-10-05T12:22:37.625Z,101246.38
2022-10-05T12:27:42.731Z,101240.00
2022-10-05T12:33:00.882Z,101233.25
2022-10-05T12:38:07.686Z,101227.63
2022-10-05T12:43:20.101Z,101230.47
2022-10-05T12:48:40.841Z,101230.00
2022-10-05T12:53:51.830Z,101224.34
2022-10-05T12:59:01.384Z,101236.53
2022-10-05T13:04:17.249Z,101216.31
2022-10-05T13:09:28.219Z,101224.47
2022-10-05T13:14:48.850Z,101235.78
2022-10-05T13:19:57.027Z,101235.09
2022-10-05T13:25:09.916Z,101229.69
2022-10-05T13:30:15.359Z,101231.16
2022-10-05T13:35:37.821Z,101232.72
2022-10-05T13:40:46.116Z,101225.03
2022-10-05T13:45:55.671Z,101214.59
2022-10-05T13:51:07.645Z,101216.03
2022-10-05T13:56:20.229Z,101206.75
2022-10-05T14:01:31.769Z,101203.53
2022-10-05T14:06:37.124Z,101198.63
2022-10-05T14:11:48.356Z,101188.56
2022-10-05T14:16:53.171Z,101194.88
2022-10-05T14:22:01.638Z,101181.13
2022-10-05T14:27:20.216Z,101177.03
2022-10-05T14:32:24.992Z,101160.25
2022-10-05T14:37:44.779Z,101158.44
2022-10-05T14:42:47.529Z,101149.81
2022-10-05T14:47:51.621Z,101157.22
2022-10-05T14:53:17.240Z,101139.09
2022-10-05T14:58:31.167Z,101141.28
2022-10-05T15:03:45.784Z,101137.66
2022-10-05T15:09:12.388Z,101131.78
2022-10-05T15:14:22.161Z,101134.44
2022-10-05T15:19:28.575Z,101132.59
2022-10-05T15:24:43.506Z,101141.78
2022-10-05T15:29:58.451Z,101130.44
2022-10-05T15:35:24.528Z,101136.41
2022-10-05T15:40:36.604Z,101140.50
2022-10-05T15:45:43.890Z,101136.75
2022-10-05T15:50:53.129Z,101132.84
2022-10-05T15:55:59.973Z,101136.31
2022-10-05T16:01:07.630Z,101136.88
2022-10-05T16:06:19.374Z,101136.56
2022-10-05T16:11:53.468Z,101142.63
2022-10-05T16:17:11.811Z,101126.47
2022-10-05T16:22:21.882Z,101128.78
2022-10-05T16:27:35.683Z,101124.22
2022-10-05T16:32:43.028Z,101109.84
2022-10-05T16:37:55.271Z,101114.66
2022-10-05T16:43:08.435Z,101108.16
2022-10-05T16:48:16.732Z,101098.44
2022-10-05T16:53:24.594Z,101101.16
2022-10-05T16:58:38.600Z,101110.78
2022-10-05T17:03:58.228Z,101104.34
2022-10-05T17:09:26.480Z,101121.78
2022-10-05T17:14:42.593Z,101114.13
2022-10-05T17:19:57.806Z,101111.97
2022-10-05T17:25:11.545Z,101120.41
2022-10-05T17:30:47.295Z,101125.84
2022-10-05T17:35:53.263Z,101124.53
2022-10-05T17:41:03.877Z,101129.19
2022-10-05T17:46:09.330Z,101127.22
2022-10-05T17:51:17.460Z,101127.28
2022-10-05T17:56:20.417Z,101117.47
2022-10-05T18:01:31.024Z,101116.25
2022-10-05T18:06:35.471Z,101117.09
2022-10-05T18:11:41.015Z,101120.09
2022-10-05T18:17:02.688Z,101114.09
2022-10-05T18:22:27.003Z,101121.13
2022-10-05T18:27:51.744Z,101120.22
2022-10-05T18:33:33.499Z,101129.13
2022-10-05T18:38:47.366Z,101125.97
2022-10-05T18:43:59.527Z,101110.97
2022-10-05T18:49:15.061Z,101117.19
2022-10-05T18:54:39.044Z,101120.97
2022-10-05T18:59:48.430Z,101120.84
2022-10-05T19:05:03.357Z,101126.34
2022-10-05T19:10:17.254Z,101123.97
2022-10-05T19:15:26.507Z,101125.69
2022-10-05T19:20:35.332Z,101133.06
2022-10-05T19:25:42.009Z,101148.28
2022-10-05T19:31:00.676Z,101160.38
2022-10-05T19:36:16.836Z,101161.72
2022-10-05T19:41:26.794Z,101170.81
2022-10-05T19:46:41.892Z,101182.31
2022-10-05T19:51:50.116Z,101185.53
2022-10-05T19:56:53.820Z,101189.84
2022-10-05T20:01:57.607Z,101193.47
2022-10-05T20:07:00.863Z,101200.50
2022-10-05T20:12:02.599Z,101201.13
2022-10-05T20:17:26.005Z,101211.00
2022-10-05T20:22:32.096Z,101218.00
2022-10-05T20:27:44.206Z,101225.22
2022-10-05T20:32:48.184Z,101239.78
2022-10-05T20:37:51.478Z,101244.53
2022-10-05T20:42:53.128Z,101251.59
2022-10-05T20:47:55.368Z,101266.84
2022-10-05T20:52:58.588Z,101264.75
2022-10-05T20:58:00.896Z,101271.78
2022-10-05T21:03:02.474Z,101272.78
2022-10-05T21:08:05.479Z,101281.66
2022-10-05T21:13:07.097Z,101278.81
2022-10-05T21:18:09.207Z,101281.38
2022-10-05T21:23:12.524Z,101285.13
2022-10-05T21:28:14.657Z,101289.31
2022-10-05T21:33:16.555Z,101287.44
2022-10-05T21:38:19.932Z,101294.34
2022-10-05T21:43:22.104Z,101302.16
2022-10-05T21:48:26.298Z,101301.44
2022-10-05T21:53:33.008Z,101307.84
2022-10-05T21:58:35.461Z,101311.63
2022-10-05T22:03:37.546Z,101305.69
2022-10-05T22:08:41.059Z,101308.44
2022-10-05T22:13:44.919Z,101304.97
2022-10-05T22:18:47.621Z,101308.03
2022-10-05T22:23:51.017Z,101311.84
2022-10-05T22:28:53.281Z,101306.50
2022-10-05T22:33:55.387Z,101308.47
2022-10-05T22:38:58.910Z,101317.59
2022-10-05T22:44:00.933Z,101320.81
2022-10-05T22:49:03.118Z,101320.94
2022-10-05T22:54:06.767Z,101325.31
2022-10-05T22:59:09.089Z,101323.50
2022-10-05T23:04:11.112Z,101335.22
2022-10-05T23:09:14.705Z,101336.03
2022-10-05T23:14:16.792Z,101343.91
2022-10-05T23:19:18.937Z,101351.56
2022-10-05T23:24:22.472Z,101349.81
2022-10-05T23:29:24.105Z,101348.09
2022-10-05T23:34:26.141Z,101348.09
2022-10-05T23:39:29.763Z,101359.78
2022-10-05T23:44:31.881Z,101360.72
2022-10-05T23:49:34.144Z,101366.81
2022-10-05T23:54:37.509Z,101375.72
2022-10-05T23:59:39.580Z,101380.88
